sensor_id;sensor_type;location;lat;lon;timestamp;temperature;humidity
22698;DHT22;11516;51.612;7.510;2023-05-29T00:00:02;13.90;99.90
22698;DHT22;11516;51.612;7.510;2023-05-29T00:02:32;13.90;99.90
22698;DHT22;11516;51.612;7.510;2023-05-29T00:04:57;13.80;99.90
22698;DHT22;11516;51.612;7.510;2023-05-29T00:07:23;13.80;99.90
22698;DHT22;11516;51.612;7.510;2023-05-29T00:09:48;13.80;99.90
22698;DHT22;11516;51.612;7.510;2023-05-29T00:12:14;13.80;99.90
22698;DHT22;11516;51.612;7.510;2023-05-29T00:14:40;13.70;99.90
22698;DHT22;11516;51.612;7.510;2023-05-29T00:17:06;13.70;99.90
22698;DHT22;11516;51.612;7.510;2023-05-29T00:19:31;13.60;99.90
22698;DHT22;11516;51.612;7.510;2023-05-29T00:21:57;13.60;99.90
22698;DHT22;11516;51.612;7.510;2023-05-29T00:24:23;13.50;99.90
22698;DHT22;11516;51.612;7.510;2023-05-29T00:26:48;13.40;99.90
22698;DHT22;11516;51.612;7.510;2023-05-29T00:29:14;13.30;99.90
22698;DHT22;11516;51.612;7.510;2023-05-29T00:31:40;13.40;99.90
22698;DHT22;11516;51.612;7.510;2023-05-29T00:34:05;13.20;99.90
22698;DHT22;11516;51.612;7.510;2023-05-29T00:36:31;13.10;99.90
22698;DHT22;11516;51.612;7.510;2023-05-29T00:38:56;13.10;99.90
22698;DHT22;11516;51.612;7.510;2023-05-29T00:41:22;13.00;99.90
22698;DHT22;11516;51.612;7.510;2023-05-29T00:43:48;12.90;99.90
22698;DHT22;11516;51.612;7.510;2023-05-29T00:46:14;12.90;99.90
22698;DHT22;11516;51.612;7.510;2023-05-29T00:48:44;12.90;99.90
22698;DHT22;11516;51.612;7.510;2023-05-29T00:51:10;12.90;99.90
22698;DHT22;11516;51.612;7.510;2023-05-29T00:53:38;12.90;99.90
22698;DHT22;11516;51.612;7.510;2023-05-29T00:56:04;12.90;99.90
22698;DHT22;11516;51.612;7.510;2023-05-29T00:58:30;12.80;99.90
22698;DHT22;11516;51.612;7.510;2023-05-29T01:00:56;12.80;99.90
22698;DHT22;11516;51.612;7.510;2023-05-29T01:03:21;12.80;99.90
22698;DHT22;11516;51.612;7.510;2023-05-29T01:05:48;12.80;99.90
22698;DHT22;11516;51.612;7.510;2023-05-29T01:08:14;12.80;99.90
22698;DHT22;11516;51.612;7.510;2023-05-29T01:10:39;12.70;99.90
22698;DHT22;11516;51.612;7.510;2023-05-29T01:13:21;12.70;99.90
22698;DHT22;11516;51.612;7.510;2023-05-29T01:18:41;12.50;99.90
22698;DHT22;11516;51.612;7.510;2023-05-29T01:21:39;12.50;99.90
22698;DHT22;11516;51.612;7.510;2023-05-29T01:24:24;12.40;99.90
22698;DHT22;11516;51.612;7.510;2023-05-29T01:27:26;12.30;99.90
22698;DHT22;11516;51.612;7.510;2023-05-29T01:29:55;12.20;99.90
22698;DHT22;11516;51.612;7.510;2023-05-29T01:32:21;12.20;99.90
22698;DHT22;11516;51.612;7.510;2023-05-29T01:34:48;12.20;99.90
22698;DHT22;11516;51.612;7.510;2023-05-29T01:37:13;12.20;99.90
22698;DHT22;11516;51.612;7.510;2023-05-29T01:39:39;12.10;99.90
22698;DHT22;11516;51.612;7.510;2023-05-29T01:42:05;12.10;99.90
22698;DHT22;11516;51.612;7.510;2023-05-29T01:44:31;12.00;99.90
22698;DHT22;11516;51.612;7.510;2023-05-29T01:46:57;12.00;99.90
22698;DHT22;11516;51.612;7.510;2023-05-29T01:49:24;12.00;99.90
22698;DHT22;11516;51.612;7.510;2023-05-29T01:51:50;11.90;99.90
22698;DHT22;11516;51.612;7.510;2023-05-29T01:54:16;11.90;99.90
22698;DHT22;11516;51.612;7.510;2023-05-29T01:56:41;11.90;99.90
22698;DHT22;11516;51.612;7.510;2023-05-29T01:59:07;11.80;99.90
22698;DHT22;11516;51.612;7.510;2023-05-29T02:01:34;11.80;99.90
22698;DHT22;11516;51.612;7.510;2023-05-29T02:03:59;11.80;99.90
22698;DHT22;11516;51.612;7.510;2023-05-29T02:06:25;11.80;99.90
22698;DHT22;11516;51.612;7.510;2023-05-29T02:08:50;11.80;99.90
22698;DHT22;11516;51.612;7.510;2023-05-29T02:11:16;11.70;99.90
22698;DHT22;11516;51.612;7.510;2023-05-29T02:13:42;11.60;99.90
22698;DHT22;11516;51.612;7.510;2023-05-29T02:16:07;11.60;99.90
22698;DHT22;11516;51.612;7.510;2023-05-29T02:18:33;11.60;99.90
22698;DHT22;11516;51.612;7.510;2023-05-29T02:21:00;11.50;99.90
22698;DHT22;11516;51.612;7.510;2023-05-29T02:23:25;11.60;99.90
22698;DHT22;11516;51.612;7.510;2023-05-29T02:25:51;11.60;99.90
22698;DHT22;11516;51.612;7.510;2023-05-29T02:28:16;11.50;99.90
22698;DHT22;11516;51.612;7.510;2023-05-29T02:30:42;11.40;99.90
22698;DHT22;11516;51.612;7.510;2023-05-29T02:33:09;11.50;99.90
22698;DHT22;11516;51.612;7.510;2023-05-29T02:35:35;11.40;99.90
22698;DHT22;11516;51.612;7.510;2023-05-29T02:38:00;11.40;99.90
22698;DHT22;11516;51.612;7.510;2023-05-29T02:40:26;11.40;99.90
22698;DHT22;11516;51.612;7.510;2023-05-29T02:42:51;11.40;99.90
22698;DHT22;11516;51.612;7.510;2023-05-29T02:45:17;11.40;99.90
22698;DHT22;11516;51.612;7.510;2023-05-29T02:47:43;11.40;99.90
22698;DHT22;11516;51.612;7.510;2023-05-29T02:50:09;11.30;99.90
22698;DHT22;11516;51.612;7.510;2023-05-29T02:52:35;11.20;99.90
22698;DHT22;11516;51.612;7.510;2023-05-29T02:55:02;11.20;99.90
22698;DHT22;11516;51.612;7.510;2023-05-29T02:57:28;11.20;99.90
22698;DHT22;11516;51.612;7.510;2023-05-29T02:59:53;11.20;99.90
22698;DHT22;11516;51.612;7.510;2023-05-29T03:02:20;11.20;99.90
22698;DHT22;11516;51.612;7.510;2023-05-29T03:04:46;11.10;99.90
22698;DHT22;11516;51.612;7.510;2023-05-29T03:07:11;11.20;99.90
22698;DHT22;11516;51.612;7.510;2023-05-29T03:09:37;11.20;99.90
22698;DHT22;11516;51.612;7.510;2023-05-29T03:12:03;11.10;99.90
22698;DHT22;11516;51.612;7.510;2023-05-29T03:14:29;11.10;99.90
22698;DHT22;11516;51.612;7.510;2023-05-29T03:16:55;11.00;99.90
22698;DHT22;11516;51.612;7.510;2023-05-29T03:19:21;11.00;99.90
22698;DHT22;11516;51.612;7.510;2023-05-29T03:21:47;11.00;99.90
22698;DHT22;11516;51.612;7.510;2023-05-29T03:24:12;10.90;99.90
22698;DHT22;11516;51.612;7.510;2023-05-29T03:26:41;10.90;99.90
22698;DHT22;11516;51.612;7.510;2023-05-29T03:29:07;10.90;99.90
22698;DHT22;11516;51.612;7.510;2023-05-29T03:31:32;10.90;99.90
22698;DHT22;11516;51.612;7.510;2023-05-29T03:33:59;10.90;99.90
22698;DHT22;11516;51.612;7.510;2023-05-29T03:36:25;10.90;99.90
22698;DHT22;11516;51.612;7.510;2023-05-29T03:38:52;11.00;99.90
22698;DHT22;11516;51.612;7.510;2023-05-29T03:41:17;11.00;99.90
22698;DHT22;11516;51.612;7.510;2023-05-29T03:43:43;10.90;99.90
22698;DHT22;11516;51.612;7.510;2023-05-29T03:46:08;11.00;99.90
22698;DHT22;11516;51.612;7.510;2023-05-29T03:48:34;11.00;99.90
22698;DHT22;11516;51.612;7.510;2023-05-29T03:50:59;11.00;99.90
22698;DHT22;11516;51.612;7.510;2023-05-29T03:53:25;11.00;99.90
22698;DHT22;11516;51.612;7.510;2023-05-29T03:55:50;10.90;99.90
22698;DHT22;11516;51.612;7.510;2023-05-29T03:58:16;10.90;99.90
22698;DHT22;11516;51.612;7.510;2023-05-29T04:00:41;10.90;99.90
22698;DHT22;11516;51.612;7.510;2023-05-29T04:03:07;10.90;99.90
22698;DHT22;11516;51.612;7.510;2023-05-29T04:05:33;10.90;99.90
22698;DHT22;11516;51.612;7.510;2023-05-29T04:07:58;10.90;99.90
22698;DHT22;11516;51.612;7.510;2023-05-29T04:10:24;10.90;99.90
22698;DHT22;11516;51.612;7.510;2023-05-29T04:12:50;10.90;99.90
22698;DHT22;11516;51.612;7.510;2023-05-29T04:15:16;10.90;99.90
22698;DHT22;11516;51.612;7.510;2023-05-29T04:17:41;10.90;99.90
22698;DHT22;11516;51.612;7.510;2023-05-29T04:20:07;10.90;99.90
22698;DHT22;11516;51.612;7.510;2023-05-29T04:22:36;10.90;99.90
22698;DHT22;11516;51.612;7.510;2023-05-29T04:25:03;10.90;99.90
22698;DHT22;11516;51.612;7.510;2023-05-29T04:27:29;10.90;99.90
22698;DHT22;11516;51.612;7.510;2023-05-29T04:29:55;10.90;99.90
22698;DHT22;11516;51.612;7.510;2023-05-29T04:32:21;11.00;99.90
22698;DHT22;11516;51.612;7.510;2023-05-29T04:34:46;11.10;99.90
22698;DHT22;11516;51.612;7.510;2023-05-29T04:37:13;11.10;99.90
22698;DHT22;11516;51.612;7.510;2023-05-29T04:39:38;11.10;99.90
22698;DHT22;11516;51.612;7.510;2023-05-29T04:42:04;11.10;99.90
22698;DHT22;11516;51.612;7.510;2023-05-29T04:44:30;11.10;99.90
22698;DHT22;11516;51.612;7.510;2023-05-29T04:46:56;11.20;99.90
22698;DHT22;11516;51.612;7.510;2023-05-29T04:49:28;11.20;99.90
22698;DHT22;11516;51.612;7.510;2023-05-29T04:51:54;11.30;99.90
22698;DHT22;11516;51.612;7.510;2023-05-29T04:54:19;11.30;99.90
22698;DHT22;11516;51.612;7.510;2023-05-29T04:56:45;11.30;99.90
22698;DHT22;11516;51.612;7.510;2023-05-29T04:59:11;11.40;99.90
22698;DHT22;11516;51.612;7.510;2023-05-29T05:01:37;11.40;99.90
22698;DHT22;11516;51.612;7.510;2023-05-29T05:04:03;11.40;99.90
22698;DHT22;11516;51.612;7.510;2023-05-29T05:06:28;11.50;99.90
22698;DHT22;11516;51.612;7.510;2023-05-29T05:08:54;11.50;99.90
22698;DHT22;11516;51.612;7.510;2023-05-29T05:11:21;11.50;99.90
22698;DHT22;11516;51.612;7.510;2023-05-29T05:13:47;11.50;99.90
22698;DHT22;11516;51.612;7.510;2023-05-29T05:16:12;11.50;99.90
22698;DHT22;11516;51.612;7.510;2023-05-29T05:18:38;11.50;99.90
22698;DHT22;11516;51.612;7.510;2023-05-29T05:21:04;11.60;99.90
22698;DHT22;11516;51.612;7.510;2023-05-29T05:23:31;11.60;99.90
22698;DHT22;11516;51.612;7.510;2023-05-29T05:25:56;11.80;99.90
22698;DHT22;11516;51.612;7.510;2023-05-29T05:28:22;11.90;99.90
22698;DHT22;11516;51.612;7.510;2023-05-29T05:30:47;11.90;99.90
22698;DHT22;11516;51.612;7.510;2023-05-29T05:33:13;11.90;99.90
22698;DHT22;11516;51.612;7.510;2023-05-29T05:35:38;11.90;99.90
22698;DHT22;11516;51.612;7.510;2023-05-29T05:38:04;12.00;99.90
22698;DHT22;11516;51.612;7.510;2023-05-29T05:40:29;12.10;99.90
22698;DHT22;11516;51.612;7.510;2023-05-29T05:42:55;12.10;99.90
22698;DHT22;11516;51.612;7.510;2023-05-29T05:45:21;12.10;99.90
22698;DHT22;11516;51.612;7.510;2023-05-29T05:47:47;12.00;99.90
22698;DHT22;11516;51.612;7.510;2023-05-29T05:50:13;12.10;99.90
22698;DHT22;11516;51.612;7.510;2023-05-29T05:52:38;12.10;99.90
22698;DHT22;11516;51.612;7.510;2023-05-29T05:55:04;12.10;99.90
22698;DHT22;11516;51.612;7.510;2023-05-29T05:57:30;12.10;99.90
22698;DHT22;11516;51.612;7.510;2023-05-29T05:59:58;12.20;99.90
22698;DHT22;11516;51.612;7.510;2023-05-29T06:02:23;12.30;99.90
22698;DHT22;11516;51.612;7.510;2023-05-29T06:04:49;12.30;99.90
22698;DHT22;11516;51.612;7.510;2023-05-29T06:07:15;12.40;99.90
22698;DHT22;11516;51.612;7.510;2023-05-29T06:09:41;12.40;99.90
22698;DHT22;11516;51.612;7.510;2023-05-29T06:12:07;12.40;99.90
22698;DHT22;11516;51.612;7.510;2023-05-29T06:14:34;12.60;99.90
22698;DHT22;11516;51.612;7.510;2023-05-29T06:17:00;12.70;99.90
22698;DHT22;11516;51.612;7.510;2023-05-29T06:19:25;12.70;99.90
22698;DHT22;11516;51.612;7.510;2023-05-29T06:21:51;12.80;99.90
22698;DHT22;11516;51.612;7.510;2023-05-29T06:24:16;13.10;99.90
22698;DHT22;11516;51.612;7.510;2023-05-29T06:26:42;13.20;99.90
22698;DHT22;11516;51.612;7.510;2023-05-29T06:29:07;13.20;99.90
22698;DHT22;11516;51.612;7.510;2023-05-29T06:31:33;13.30;99.90
22698;DHT22;11516;51.612;7.510;2023-05-29T06:33:59;13.20;99.90
22698;DHT22;11516;51.612;7.510;2023-05-29T06:36:25;13.20;99.90
22698;DHT22;11516;51.612;7.510;2023-05-29T06:38:51;13.10;99.90
22698;DHT22;11516;51.612;7.510;2023-05-29T06:41:17;13.20;99.90
22698;DHT22;11516;51.612;7.510;2023-05-29T06:43:43;13.10;99.90
22698;DHT22;11516;51.612;7.510;2023-05-29T06:46:09;13.20;99.90
22698;DHT22;11516;51.612;7.510;2023-05-29T06:48:35;13.40;99.90
22698;DHT22;11516;51.612;7.510;2023-05-29T06:51:01;13.60;99.90
22698;DHT22;11516;51.612;7.510;2023-05-29T06:53:28;13.50;99.90
22698;DHT22;11516;51.612;7.510;2023-05-29T06:55:54;13.50;99.90
22698;DHT22;11516;51.612;7.510;2023-05-29T06:58:19;13.50;99.90
22698;DHT22;11516;51.612;7.510;2023-05-29T07:00:45;13.60;99.90
22698;DHT22;11516;51.612;7.510;2023-05-29T07:03:10;13.60;99.90
22698;DHT22;11516;51.612;7.510;2023-05-29T07:05:36;13.60;99.90
22698;DHT22;11516;51.612;7.510;2023-05-29T07:08:02;13.70;99.90
22698;DHT22;11516;51.612;7.510;2023-05-29T07:10:27;13.80;99.90
22698;DHT22;11516;51.612;7.510;2023-05-29T07:12:53;13.90;99.90
22698;DHT22;11516;51.612;7.510;2023-05-29T07:15:18;14.10;99.90
22698;DHT22;11516;51.612;7.510;2023-05-29T07:17:44;14.20;99.90
22698;DHT22;11516;51.612;7.510;2023-05-29T07:20:09;14.00;99.90
22698;DHT22;11516;51.612;7.510;2023-05-29T07:22:35;13.90;99.90
22698;DHT22;11516;51.612;7.510;2023-05-29T07:25:02;13.90;99.90
22698;DHT22;11516;51.612;7.510;2023-05-29T07:27:28;14.00;99.90
22698;DHT22;11516;51.612;7.510;2023-05-29T07:29:54;14.20;99.90
22698;DHT22;11516;51.612;7.510;2023-05-29T07:32:20;14.20;99.90
22698;DHT22;11516;51.612;7.510;2023-05-29T07:34:47;14.40;99.90
22698;DHT22;11516;51.612;7.510;2023-05-29T07:37:15;14.70;99.90
22698;DHT22;11516;51.612;7.510;2023-05-29T07:39:40;14.80;99.90
22698;DHT22;11516;51.612;7.510;2023-05-29T07:42:06;14.80;99.90
22698;DHT22;11516;51.612;7.510;2023-05-29T07:44:32;14.80;99.90
22698;DHT22;11516;51.612;7.510;2023-05-29T07:46:57;14.90;99.90
22698;DHT22;11516;51.612;7.510;2023-05-29T07:49:23;14.80;99.90
22698;DHT22;11516;51.612;7.510;2023-05-29T07:51:48;14.90;99.90
22698;DHT22;11516;51.612;7.510;2023-05-29T07:54:14;14.80;99.90
22698;DHT22;11516;51.612;7.510;2023-05-29T07:56:42;14.80;99.90
22698;DHT22;11516;51.612;7.510;2023-05-29T07:59:09;15.00;99.90
22698;DHT22;11516;51.612;7.510;2023-05-29T08:01:36;15.10;99.90
22698;DHT22;11516;51.612;7.510;2023-05-29T08:04:02;15.00;99.90
22698;DHT22;11516;51.612;7.510;2023-05-29T08:06:28;15.00;99.90
22698;DHT22;11516;51.612;7.510;2023-05-29T08:08:53;15.10;99.90
22698;DHT22;11516;51.612;7.510;2023-05-29T08:11:19;15.30;99.90
22698;DHT22;11516;51.612;7.510;2023-05-29T08:13:46;15.30;99.90
22698;DHT22;11516;51.612;7.510;2023-05-29T08:16:12;15.30;99.90
22698;DHT22;11516;51.612;7.510;2023-05-29T08:18:39;15.40;99.90
22698;DHT22;11516;51.612;7.510;2023-05-29T08:21:05;15.50;99.90
22698;DHT22;11516;51.612;7.510;2023-05-29T08:23:31;15.50;99.90
22698;DHT22;11516;51.612;7.510;2023-05-29T08:25:57;15.40;99.90
22698;DHT22;11516;51.612;7.510;2023-05-29T08:28:22;15.40;99.90
22698;DHT22;11516;51.612;7.510;2023-05-29T08:30:48;15.40;99.90
22698;DHT22;11516;51.612;7.510;2023-05-29T08:33:13;15.40;99.90
22698;DHT22;11516;51.612;7.510;2023-05-29T08:35:39;15.50;99.90
22698;DHT22;11516;51.612;7.510;2023-05-29T08:38:05;15.50;99.90
22698;DHT22;11516;51.612;7.510;2023-05-29T08:40:30;15.30;99.90
22698;DHT22;11516;51.612;7.510;2023-05-29T08:43:02;15.30;99.90
22698;DHT22;11516;51.612;7.510;2023-05-29T08:45:29;15.60;99.90
22698;DHT22;11516;51.612;7.510;2023-05-29T08:47:55;15.80;99.90
22698;DHT22;11516;51.612;7.510;2023-05-29T08:50:23;15.90;99.90
22698;DHT22;11516;51.612;7.510;2023-05-29T08:52:49;16.00;99.90
22698;DHT22;11516;51.612;7.510;2023-05-29T08:55:15;16.10;99.90
22698;DHT22;11516;51.612;7.510;2023-05-29T08:57:41;16.30;99.90
22698;DHT22;11516;51.612;7.510;2023-05-29T09:00:09;16.20;99.90
22698;DHT22;11516;51.612;7.510;2023-05-29T09:02:39;16.30;99.90
22698;DHT22;11516;51.612;7.510;2023-05-29T09:05:04;16.30;99.90
22698;DHT22;11516;51.612;7.510;2023-05-29T09:07:32;16.50;99.90
22698;DHT22;11516;51.612;7.510;2023-05-29T09:09:58;16.50;99.90
22698;DHT22;11516;51.612;7.510;2023-05-29T09:12:24;16.60;99.90
22698;DHT22;11516;51.612;7.510;2023-05-29T09:14:50;16.40;99.90
22698;DHT22;11516;51.612;7.510;2023-05-29T09:17:16;16.50;99.90
22698;DHT22;11516;51.612;7.510;2023-05-29T09:19:41;16.70;99.90
22698;DHT22;11516;51.612;7.510;2023-05-29T09:22:12;16.70;99.90
22698;DHT22;11516;51.612;7.510;2023-05-29T09:24:47;16.70;99.90
22698;DHT22;11516;51.612;7.510;2023-05-29T09:27:14;16.80;99.90
22698;DHT22;11516;51.612;7.510;2023-05-29T09:29:41;16.60;99.90
22698;DHT22;11516;51.612;7.510;2023-05-29T09:32:11;16.30;99.90
22698;DHT22;11516;51.612;7.510;2023-05-29T09:34:37;16.40;99.90
22698;DHT22;11516;51.612;7.510;2023-05-29T09:37:04;16.30;99.90
22698;DHT22;11516;51.612;7.510;2023-05-29T09:39:54;16.40;99.90
22698;DHT22;11516;51.612;7.510;2023-05-29T09:42:20;16.50;99.90
22698;DHT22;11516;51.612;7.510;2023-05-29T09:44:49;16.60;99.90
22698;DHT22;11516;51.612;7.510;2023-05-29T09:47:17;16.70;99.90
22698;DHT22;11516;51.612;7.510;2023-05-29T09:49:44;17.10;99.90
22698;DHT22;11516;51.612;7.510;2023-05-29T09:52:12;17.10;99.90
22698;DHT22;11516;51.612;7.510;2023-05-29T09:54:39;17.30;99.90
22698;DHT22;11516;51.612;7.510;2023-05-29T09:57:06;17.30;99.90
22698;DHT22;11516;51.612;7.510;2023-05-29T09:59:33;17.30;99.90
22698;DHT22;11516;51.612;7.510;2023-05-29T10:02:04;17.40;99.90
22698;DHT22;11516;51.612;7.510;2023-05-29T10:04:31;17.50;99.90
22698;DHT22;11516;51.612;7.510;2023-05-29T10:07:08;17.90;99.90
22698;DHT22;11516;51.612;7.510;2023-05-29T10:09:39;18.00;99.90
22698;DHT22;11516;51.612;7.510;2023-05-29T10:12:07;18.10;99.90
22698;DHT22;11516;51.612;7.510;2023-05-29T10:14:34;18.30;99.90
22698;DHT22;11516;51.612;7.510;2023-05-29T10:17:03;18.50;99.90
22698;DHT22;11516;51.612;7.510;2023-05-29T10:19:32;18.80;99.90
22698;DHT22;11516;51.612;7.510;2023-05-29T10:22:01;18.50;99.90
22698;DHT22;11516;51.612;7.510;2023-05-29T10:24:27;18.20;99.90
22698;DHT22;11516;51.612;7.510;2023-05-29T10:26:55;18.10;99.90
22698;DHT22;11516;51.612;7.510;2023-05-29T10:34:49;18.30;99.90
22698;DHT22;11516;51.612;7.510;2023-05-29T10:37:50;18.60;99.90
22698;DHT22;11516;51.612;7.510;2023-05-29T10:40:24;18.90;99.90
22698;DHT22;11516;51.612;7.510;2023-05-29T10:42:51;19.00;99.90
22698;DHT22;11516;51.612;7.510;2023-05-29T10:50:41;18.90;99.90
22698;DHT22;11516;51.612;7.510;2023-05-29T10:53:07;19.10;99.90
22698;DHT22;11516;51.612;7.510;2023-05-29T10:55:37;19.50;99.90
22698;DHT22;11516;51.612;7.510;2023-05-29T10:58:06;19.80;99.90
22698;DHT22;11516;51.612;7.510;2023-05-29T11:00:32;19.80;99.90
22698;DHT22;11516;51.612;7.510;2023-05-29T11:03:02;19.80;99.90
22698;DHT22;11516;51.612;7.510;2023-05-29T11:05:28;20.00;99.90
22698;DHT22;11516;51.612;7.510;2023-05-29T11:07:58;19.80;99.90
22698;DHT22;11516;51.612;7.510;2023-05-29T11:10:44;19.80;99.90
22698;DHT22;11516;51.612;7.510;2023-05-29T11:13:11;20.10;99.90
22698;DHT22;11516;51.612;7.510;2023-05-29T11:15:47;20.60;99.90
22698;DHT22;11516;51.612;7.510;2023-05-29T11:18:13;20.80;99.90
22698;DHT22;11516;51.612;7.510;2023-05-29T11:20:46;21.00;99.90
22698;DHT22;11516;51.612;7.510;2023-05-29T11:23:16;21.10;99.90
22698;DHT22;11516;51.612;7.510;2023-05-29T11:25:44;20.90;99.90
22698;DHT22;11516;51.612;7.510;2023-05-29T11:28:11;21.00;99.90
22698;DHT22;11516;51.612;7.510;2023-05-29T11:30:47;20.40;99.90
22698;DHT22;11516;51.612;7.510;2023-05-29T11:33:23;20.90;99.90
22698;DHT22;11516;51.612;7.510;2023-05-29T11:35:57;21.00;99.90
22698;DHT22;11516;51.612;7.510;2023-05-29T11:38:24;21.30;99.90
22698;DHT22;11516;51.612;7.510;2023-05-29T11:40:50;21.60;99.90
22698;DHT22;11516;51.612;7.510;2023-05-29T11:43:16;22.00;99.90
22698;DHT22;11516;51.612;7.510;2023-05-29T11:45:41;21.40;99.90
22698;DHT22;11516;51.612;7.510;2023-05-29T11:48:07;21.30;99.90
22698;DHT22;11516;51.612;7.510;2023-05-29T11:50:33;21.50;99.90
22698;DHT22;11516;51.612;7.510;2023-05-29T11:52:59;21.80;99.70
22698;DHT22;11516;51.612;7.510;2023-05-29T11:55:26;21.60;99.90
22698;DHT22;11516;51.612;7.510;2023-05-29T11:57:59;21.40;99.00
22698;DHT22;11516;51.612;7.510;2023-05-29T12:00:28;21.90;98.70
22698;DHT22;11516;51.612;7.510;2023-05-29T12:02:58;22.00;98.30
22698;DHT22;11516;51.612;7.510;2023-05-29T12:05:23;22.10;97.80
22698;DHT22;11516;51.612;7.510;2023-05-29T12:07:53;22.20;98.00
22698;DHT22;11516;51.612;7.510;2023-05-29T12:10:20;21.80;97.30
22698;DHT22;11516;51.612;7.510;2023-05-29T12:12:59;22.20;97.00
22698;DHT22;11516;51.612;7.510;2023-05-29T12:15:26;22.70;97.00
22698;DHT22;11516;51.612;7.510;2023-05-29T12:17:53;23.30;95.80
22698;DHT22;11516;51.612;7.510;2023-05-29T12:20:19;23.40;93.90
22698;DHT22;11516;51.612;7.510;2023-05-29T12:22:47;22.70;94.40
22698;DHT22;11516;51.612;7.510;2023-05-29T12:25:16;22.60;95.60
22698;DHT22;11516;51.612;7.510;2023-05-29T12:27:45;22.90;95.40
22698;DHT22;11516;51.612;7.510;2023-05-29T12:30:20;23.10;94.00
22698;DHT22;11516;51.612;7.510;2023-05-29T12:32:51;22.80;94.30
22698;DHT22;11516;51.612;7.510;2023-05-29T12:35:22;23.00;94.10
22698;DHT22;11516;51.612;7.510;2023-05-29T12:40:25;23.00;92.90
22698;DHT22;11516;51.612;7.510;2023-05-29T12:42:55;23.20;92.60
22698;DHT22;11516;51.612;7.510;2023-05-29T12:45:24;23.30;93.80
22698;DHT22;11516;51.612;7.510;2023-05-29T12:48:04;23.40;92.60
22698;DHT22;11516;51.612;7.510;2023-05-29T12:50:32;23.30;93.10
22698;DHT22;11516;51.612;7.510;2023-05-29T12:53:02;23.10;92.60
22698;DHT22;11516;51.612;7.510;2023-05-29T12:55:29;22.60;92.90
22698;DHT22;11516;51.612;7.510;2023-05-29T12:57:55;22.40;92.70
22698;DHT22;11516;51.612;7.510;2023-05-29T13:00:22;22.10;94.20
22698;DHT22;11516;51.612;7.510;2023-05-29T13:02:48;22.00;94.00
22698;DHT22;11516;51.612;7.510;2023-05-29T13:05:15;22.20;93.60
22698;DHT22;11516;51.612;7.510;2023-05-29T13:07:42;22.40;93.00
22698;DHT22;11516;51.612;7.510;2023-05-29T13:10:08;22.70;93.20
22698;DHT22;11516;51.612;7.510;2023-05-29T13:12:34;23.20;92.60
22698;DHT22;11516;51.612;7.510;2023-05-29T13:15:00;23.10;93.00
22698;DHT22;11516;51.612;7.510;2023-05-29T13:17:25;22.90;91.80
22698;DHT22;11516;51.612;7.510;2023-05-29T13:19:51;22.70;92.90
22698;DHT22;11516;51.612;7.510;2023-05-29T13:22:16;22.60;91.50
22698;DHT22;11516;51.612;7.510;2023-05-29T13:24:42;22.90;91.00
22698;DHT22;11516;51.612;7.510;2023-05-29T13:27:08;23.00;90.80
22698;DHT22;11516;51.612;7.510;2023-05-29T13:29:34;22.80;91.10
22698;DHT22;11516;51.612;7.510;2023-05-29T13:32:00;23.30;91.30
22698;DHT22;11516;51.612;7.510;2023-05-29T13:34:26;23.90;90.20
22698;DHT22;11516;51.612;7.510;2023-05-29T13:36:54;24.30;89.20
22698;DHT22;11516;51.612;7.510;2023-05-29T13:39:20;24.00;88.70
22698;DHT22;11516;51.612;7.510;2023-05-29T13:41:46;23.50;90.10
22698;DHT22;11516;51.612;7.510;2023-05-29T13:44:11;23.50;89.20
22698;DHT22;11516;51.612;7.510;2023-05-29T13:46:37;23.10;87.60
22698;DHT22;11516;51.612;7.510;2023-05-29T13:49:03;23.40;89.00
22698;DHT22;11516;51.612;7.510;2023-05-29T13:51:28;23.80;88.10
22698;DHT22;11516;51.612;7.510;2023-05-29T13:53:54;23.80;85.40
22698;DHT22;11516;51.612;7.510;2023-05-29T13:56:19;22.90;89.00
22698;DHT22;11516;51.612;7.510;2023-05-29T13:58:45;23.00;88.50
22698;DHT22;11516;51.612;7.510;2023-05-29T14:01:10;23.50;88.60
22698;DHT22;11516;51.612;7.510;2023-05-29T14:03:36;23.50;87.20
22698;DHT22;11516;51.612;7.510;2023-05-29T14:06:01;22.90;89.20
22698;DHT22;11516;51.612;7.510;2023-05-29T14:08:30;23.20;88.70
22698;DHT22;11516;51.612;7.510;2023-05-29T14:10:56;23.60;87.20
22698;DHT22;11516;51.612;7.510;2023-05-29T14:13:21;24.20;85.30
22698;DHT22;11516;51.612;7.510;2023-05-29T14:15:47;23.70;84.00
22698;DHT22;11516;51.612;7.510;2023-05-29T14:18:15;23.30;85.10
22698;DHT22;11516;51.612;7.510;2023-05-29T14:20:40;23.40;86.60
22698;DHT22;11516;51.612;7.510;2023-05-29T14:23:06;23.70;84.60
22698;DHT22;11516;51.612;7.510;2023-05-29T14:25:34;24.10;84.50
22698;DHT22;11516;51.612;7.510;2023-05-29T14:28:00;24.30;83.50
22698;DHT22;11516;51.612;7.510;2023-05-29T14:30:25;24.50;82.20
22698;DHT22;11516;51.612;7.510;2023-05-29T14:32:51;24.70;83.10
22698;DHT22;11516;51.612;7.510;2023-05-29T14:35:17;24.10;81.90
22698;DHT22;11516;51.612;7.510;2023-05-29T14:37:42;23.70;80.40
22698;DHT22;11516;51.612;7.510;2023-05-29T14:40:08;23.20;81.70
22698;DHT22;11516;51.612;7.510;2023-05-29T14:42:34;23.10;81.30
22698;DHT22;11516;51.612;7.510;2023-05-29T14:44:59;23.80;80.10
22698;DHT22;11516;51.612;7.510;2023-05-29T14:47:25;23.60;80.60
22698;DHT22;11516;51.612;7.510;2023-05-29T14:49:50;23.40;82.60
22698;DHT22;11516;51.612;7.510;2023-05-29T14:52:16;23.60;82.90
22698;DHT22;11516;51.612;7.510;2023-05-29T14:54:41;23.60;80.30
22698;DHT22;11516;51.612;7.510;2023-05-29T14:57:07;23.10;81.60
22698;DHT22;11516;51.612;7.510;2023-05-29T14:59:32;23.60;81.10
22698;DHT22;11516;51.612;7.510;2023-05-29T15:01:58;24.30;77.30
22698;DHT22;11516;51.612;7.510;2023-05-29T15:04:25;23.80;79.40
22698;DHT22;11516;51.612;7.510;2023-05-29T15:06:50;24.70;79.30
22698;DHT22;11516;51.612;7.510;2023-05-29T15:09:16;24.90;77.40
22698;DHT22;11516;51.612;7.510;2023-05-29T15:11:42;24.90;78.20
22698;DHT22;11516;51.612;7.510;2023-05-29T15:14:08;24.90;78.10
22698;DHT22;11516;51.612;7.510;2023-05-29T15:16:34;24.80;77.80
22698;DHT22;11516;51.612;7.510;2023-05-29T15:19:00;24.30;78.00
22698;DHT22;11516;51.612;7.510;2023-05-29T15:21:25;24.40;76.70
22698;DHT22;11516;51.612;7.510;2023-05-29T15:23:51;24.40;76.10
22698;DHT22;11516;51.612;7.510;2023-05-29T15:26:16;24.40;76.60
22698;DHT22;11516;51.612;7.510;2023-05-29T15:28:42;24.40;76.00
22698;DHT22;11516;51.612;7.510;2023-05-29T15:31:08;24.40;75.60
22698;DHT22;11516;51.612;7.510;2023-05-29T15:33:33;23.60;77.70
22698;DHT22;11516;51.612;7.510;2023-05-29T15:35:59;22.70;78.50
22698;DHT22;11516;51.612;7.510;2023-05-29T15:38:24;22.30;80.60
22698;DHT22;11516;51.612;7.510;2023-05-29T15:40:50;21.90;79.90
22698;DHT22;11516;51.612;7.510;2023-05-29T15:43:16;21.50;82.50